sensor_id;sensor_type;location;lat;lon;timestamp;P1;durP1;ratioP1;P2;durP2;ratioP2
59907;SDS011;61804;54.926;73.496;2022-10-16T00:01:40;4.47;;;3.92;;
59907;SDS011;61804;54.926;73.496;2022-10-16T00:04:08;5.93;;;4.25;;
59907;SDS011;61804;54.926;73.496;2022-10-16T00:06:36;8.38;;;4.47;;
59907;SDS011;61804;54.926;73.496;2022-10-16T00:09:08;8.77;;;4.22;;
59907;SDS011;61804;54.926;73.496;2022-10-16T00:11:37;9.80;;;4.85;;
59907;SDS011;61804;54.926;73.496;2022-10-16T00:14:09;6.32;;;4.65;;
59907;SDS011;61804;54.926;73.496;2022-10-16T00:16:38;8.00;;;4.53;;
59907;SDS011;61804;54.926;73.496;2022-10-16T00:19:05;8.30;;;5.32;;
59907;SDS011;61804;54.926;73.496;2022-10-16T00:21:34;13.23;;;5.50;;
59907;SDS011;61804;54.926;73.496;2022-10-16T00:24:04;17.77;;;6.90;;
59907;SDS011;61804;54.926;73.496;2022-10-16T00:26:32;6.70;;;5.75;;
59907;SDS011;61804;54.926;73.496;2022-10-16T00:29:00;13.13;;;5.18;;
59907;SDS011;61804;54.926;73.496;2022-10-16T00:31:28;6.57;;;4.05;;
59907;SDS011;61804;54.926;73.496;2022-10-16T00:33:56;4.78;;;4.35;;
59907;SDS011;61804;54.926;73.496;2022-10-16T00:36:24;8.00;;;3.63;;
59907;SDS011;61804;54.926;73.496;2022-10-16T00:38:54;8.25;;;3.78;;
59907;SDS011;61804;54.926;73.496;2022-10-16T00:41:22;6.85;;;4.57;;
59907;SDS011;61804;54.926;73.496;2022-10-16T00:43:51;10.85;;;4.68;;
59907;SDS011;61804;54.926;73.496;2022-10-16T00:46:27;6.18;;;4.70;;
59907;SDS011;61804;54.926;73.496;2022-10-16T00:51:35;6.80;;;4.88;;
59907;SDS011;61804;54.926;73.496;2022-10-16T00:54:04;4.47;;;4.07;;
59907;SDS011;61804;54.926;73.496;2022-10-16T00:56:33;10.10;;;4.70;;
59907;SDS011;61804;54.926;73.496;2022-10-16T00:59:03;6.93;;;4.68;;
59907;SDS011;61804;54.926;73.496;2022-10-16T01:01:36;7.50;;;3.92;;
59907;SDS011;61804;54.926;73.496;2022-10-16T01:04:04;15.02;;;10.30;;
59907;SDS011;61804;54.926;73.496;2022-10-16T01:07:14;5.07;;;4.50;;
59907;SDS011;61804;54.926;73.496;2022-10-16T01:09:23;12.75;;;5.15;;
59907;SDS011;61804;54.926;73.496;2022-10-16T01:12:14;7.38;;;5.25;;
59907;SDS011;61804;54.926;73.496;2022-10-16T01:22:56;8.80;;;5.35;;
59907;SDS011;61804;54.926;73.496;2022-10-16T01:25:31;16.58;;;13.40;;
59907;SDS011;61804;54.926;73.496;2022-10-16T01:28:02;7.55;;;6.43;;
59907;SDS011;61804;54.926;73.496;2022-10-16T01:30:32;10.65;;;7.00;;
59907;SDS011;61804;54.926;73.496;2022-10-16T01:33:03;9.05;;;8.07;;
59907;SDS011;61804;54.926;73.496;2022-10-16T01:35:37;13.85;;;10.55;;
59907;SDS011;61804;54.926;73.496;2022-10-16T01:40:39;11.93;;;10.73;;
59907;SDS011;61804;54.926;73.496;2022-10-16T01:43:09;12.88;;;10.32;;
59907;SDS011;61804;54.926;73.496;2022-10-16T01:45:50;13.10;;;11.90;;
59907;SDS011;61804;54.926;73.496;2022-10-16T01:48:19;24.60;;;19.98;;
59907;SDS011;61804;54.926;73.496;2022-10-16T01:50:57;19.90;;;16.60;;
59907;SDS011;61804;54.926;73.496;2022-10-16T01:53:25;19.50;;;17.50;;
59907;SDS011;61804;54.926;73.496;2022-10-16T01:55:54;14.27;;;12.00;;
59907;SDS011;61804;54.926;73.496;2022-10-16T01:58:23;13.52;;;10.85;;
59907;SDS011;61804;54.926;73.496;2022-10-16T02:00:51;12.88;;;11.35;;
59907;SDS011;61804;54.926;73.496;2022-10-16T02:03:19;10.65;;;9.57;;
59907;SDS011;61804;54.926;73.496;2022-10-16T02:08:29;10.48;;;8.38;;
59907;SDS011;61804;54.926;73.496;2022-10-16T02:10:58;9.75;;;8.75;;
59907;SDS011;61804;54.926;73.496;2022-10-16T02:16:08;11.40;;;8.70;;
59907;SDS011;61804;54.926;73.496;2022-10-16T02:18:36;19.55;;;9.52;;
59907;SDS011;61804;54.926;73.496;2022-10-16T02:21:50;11.60;;;9.35;;
59907;SDS011;61804;54.926;73.496;2022-10-16T02:24:30;10.18;;;8.23;;
59907;SDS011;61804;54.926;73.496;2022-10-16T02:27:03;13.43;;;10.35;;
59907;SDS011;61804;54.926;73.496;2022-10-16T02:29:34;12.65;;;11.43;;
59907;SDS011;61804;54.926;73.496;2022-10-16T02:32:06;24.23;;;10.73;;
59907;SDS011;61804;54.926;73.496;2022-10-16T02:34:37;10.30;;;8.43;;
59907;SDS011;61804;54.926;73.496;2022-10-16T02:37:06;11.05;;;9.88;;
59907;SDS011;61804;54.926;73.496;2022-10-16T02:39:36;12.95;;;10.30;;
59907;SDS011;61804;54.926;73.496;2022-10-16T02:42:04;12.73;;;11.32;;
59907;SDS011;61804;54.926;73.496;2022-10-16T02:44:31;15.75;;;11.23;;
59907;SDS011;61804;54.926;73.496;2022-10-16T02:46:59;15.43;;;13.45;;
59907;SDS011;61804;54.926;73.496;2022-10-16T02:49:27;19.00;;;15.25;;
59907;SDS011;61804;54.926;73.496;2022-10-16T02:51:55;11.98;;;10.73;;
59907;SDS011;61804;54.926;73.496;2022-10-16T02:54:22;16.73;;;11.52;;
59907;SDS011;61804;54.926;73.496;2022-10-16T02:57:00;13.70;;;10.38;;
59907;SDS011;61804;54.926;73.496;2022-10-16T02:59:27;11.75;;;9.95;;
59907;SDS011;61804;54.926;73.496;2022-10-16T03:01:55;16.02;;;10.23;;
59907;SDS011;61804;54.926;73.496;2022-10-16T03:04:33;44.75;;;30.95;;
59907;SDS011;61804;54.926;73.496;2022-10-16T03:07:00;44.15;;;30.45;;
59907;SDS011;61804;54.926;73.496;2022-10-16T03:09:28;49.95;;;33.78;;
59907;SDS011;61804;54.926;73.496;2022-10-16T03:11:56;38.13;;;20.75;;
59907;SDS011;61804;54.926;73.496;2022-10-16T03:14:24;30.02;;;17.75;;
59907;SDS011;61804;54.926;73.496;2022-10-16T03:16:53;40.53;;;23.58;;
59907;SDS011;61804;54.926;73.496;2022-10-16T03:19:21;26.83;;;15.60;;
59907;SDS011;61804;54.926;73.496;2022-10-16T03:21:48;33.88;;;18.63;;
59907;SDS011;61804;54.926;73.496;2022-10-16T03:24:25;17.40;;;13.07;;
59907;SDS011;61804;54.926;73.496;2022-10-16T03:26:57;26.08;;;14.07;;
59907;SDS011;61804;54.926;73.496;2022-10-16T03:29:25;18.70;;;13.55;;
59907;SDS011;61804;54.926;73.496;2022-10-16T03:31:54;17.45;;;14.68;;
59907;SDS011;61804;54.926;73.496;2022-10-16T03:34:21;13.95;;;11.65;;
59907;SDS011;61804;54.926;73.496;2022-10-16T03:36:49;17.27;;;9.13;;
59907;SDS011;61804;54.926;73.496;2022-10-16T03:39:17;13.73;;;9.45;;
59907;SDS011;61804;54.926;73.496;2022-10-16T03:41:44;15.13;;;11.68;;
59907;SDS011;61804;54.926;73.496;2022-10-16T03:44:13;15.90;;;10.55;;
59907;SDS011;61804;54.926;73.496;2022-10-16T03:46:41;14.18;;;8.82;;
59907;SDS011;61804;54.926;73.496;2022-10-16T03:49:09;11.13;;;8.40;;
59907;SDS011;61804;54.926;73.496;2022-10-16T03:51:36;15.55;;;7.82;;
59907;SDS011;61804;54.926;73.496;2022-10-16T03:54:04;9.10;;;6.13;;
59907;SDS011;61804;54.926;73.496;2022-10-16T03:56:41;13.27;;;7.95;;
59907;SDS011;61804;54.926;73.496;2022-10-16T03:59:09;14.48;;;8.13;;
59907;SDS011;61804;54.926;73.496;2022-10-16T04:01:36;10.73;;;6.57;;
59907;SDS011;61804;54.926;73.496;2022-10-16T04:04:04;13.45;;;6.20;;
59907;SDS011;61804;54.926;73.496;2022-10-16T04:06:32;11.32;;;5.03;;
59907;SDS011;61804;54.926;73.496;2022-10-16T04:09:00;8.15;;;5.28;;
59907;SDS011;61804;54.926;73.496;2022-10-16T04:11:34;10.80;;;6.15;;
59907;SDS011;61804;54.926;73.496;2022-10-16T04:14:01;10.90;;;5.68;;
59907;SDS011;61804;54.926;73.496;2022-10-16T04:16:39;5.30;;;4.32;;
59907;SDS011;61804;54.926;73.496;2022-10-16T04:19:08;8.75;;;3.88;;
59907;SDS011;61804;54.926;73.496;2022-10-16T04:21:37;12.55;;;6.35;;
59907;SDS011;61804;54.926;73.496;2022-10-16T04:24:06;16.85;;;8.45;;
59907;SDS011;61804;54.926;73.496;2022-10-16T04:26:36;7.07;;;4.45;;
59907;SDS011;61804;54.926;73.496;2022-10-16T04:29:03;6.63;;;4.38;;
59907;SDS011;61804;54.926;73.496;2022-10-16T04:31:31;12.32;;;5.28;;
59907;SDS011;61804;54.926;73.496;2022-10-16T04:33:59;5.65;;;5.03;;
59907;SDS011;61804;54.926;73.496;2022-10-16T04:36:26;3.45;;;3.10;;
59907;SDS011;61804;54.926;73.496;2022-10-16T04:38:54;4.25;;;3.80;;
59907;SDS011;61804;54.926;73.496;2022-10-16T04:41:25;7.93;;;4.72;;
59907;SDS011;61804;54.926;73.496;2022-10-16T04:43:53;11.52;;;6.13;;
59907;SDS011;61804;54.926;73.496;2022-10-16T04:46:30;5.30;;;4.03;;
59907;SDS011;61804;54.926;73.496;2022-10-16T04:48:58;8.75;;;5.50;;
59907;SDS011;61804;54.926;73.496;2022-10-16T04:51:25;7.15;;;5.25;;
59907;SDS011;61804;54.926;73.496;2022-10-16T04:53:59;13.52;;;5.97;;
59907;SDS011;61804;54.926;73.496;2022-10-16T04:56:27;9.90;;;5.78;;
59907;SDS011;61804;54.926;73.496;2022-10-16T04:58:55;9.65;;;5.97;;
59907;SDS011;61804;54.926;73.496;2022-10-16T05:01:23;17.00;;;8.27;;
59907;SDS011;61804;54.926;73.496;2022-10-16T05:03:51;32.83;;;13.35;;
59907;SDS011;61804;54.926;73.496;2022-10-16T05:06:19;12.27;;;7.88;;
59907;SDS011;61804;54.926;73.496;2022-10-16T05:08:46;8.98;;;7.35;;
59907;SDS011;61804;54.926;73.496;2022-10-16T05:11:13;15.43;;;8.65;;
59907;SDS011;61804;54.926;73.496;2022-10-16T05:13:41;14.50;;;8.90;;
59907;SDS011;61804;54.926;73.496;2022-10-16T05:16:09;11.38;;;9.23;;
59907;SDS011;61804;54.926;73.496;2022-10-16T05:18:36;12.82;;;7.45;;
59907;SDS011;61804;54.926;73.496;2022-10-16T05:21:04;10.60;;;7.63;;
59907;SDS011;61804;54.926;73.496;2022-10-16T05:23:38;10.50;;;6.50;;
59907;SDS011;61804;54.926;73.496;2022-10-16T05:26:05;12.40;;;8.70;;
59907;SDS011;61804;54.926;73.496;2022-10-16T05:28:33;13.43;;;8.68;;
59907;SDS011;61804;54.926;73.496;2022-10-16T05:31:04;8.70;;;6.00;;
59907;SDS011;61804;54.926;73.496;2022-10-16T05:33:37;8.10;;;7.28;;
59907;SDS011;61804;54.926;73.496;2022-10-16T05:36:06;34.47;;;11.38;;
59907;SDS011;61804;54.926;73.496;2022-10-16T05:38:34;11.07;;;9.23;;
59907;SDS011;61804;54.926;73.496;2022-10-16T05:41:02;7.45;;;6.72;;
59907;SDS011;61804;54.926;73.496;2022-10-16T05:43:40;10.57;;;9.15;;
59907;SDS011;61804;54.926;73.496;2022-10-16T05:46:09;10.52;;;8.85;;
59907;SDS011;61804;54.926;73.496;2022-10-16T05:48:36;11.65;;;8.45;;
59907;SDS011;61804;54.926;73.496;2022-10-16T05:51:04;10.65;;;7.25;;
59907;SDS011;61804;54.926;73.496;2022-10-16T05:53:34;8.32;;;4.72;;
59907;SDS011;61804;54.926;73.496;2022-10-16T05:56:05;6.28;;;5.47;;
59907;SDS011;61804;54.926;73.496;2022-10-16T05:58:37;17.85;;;9.65;;
59907;SDS011;61804;54.926;73.496;2022-10-16T06:01:09;16.63;;;6.60;;
59907;SDS011;61804;54.926;73.496;2022-10-16T06:03:37;7.93;;;6.20;;
59907;SDS011;61804;54.926;73.496;2022-10-16T06:06:11;12.35;;;7.13;;
59907;SDS011;61804;54.926;73.496;2022-10-16T06:08:39;13.68;;;7.40;;
59907;SDS011;61804;54.926;73.496;2022-10-16T06:11:09;7.38;;;6.35;;
59907;SDS011;61804;54.926;73.496;2022-10-16T06:13:36;6.95;;;6.28;;
59907;SDS011;61804;54.926;73.496;2022-10-16T06:16:05;11.10;;;9.70;;
59907;SDS011;61804;54.926;73.496;2022-10-16T06:18:43;15.82;;;10.30;;
59907;SDS011;61804;54.926;73.496;2022-10-16T06:21:18;10.90;;;7.32;;
59907;SDS011;61804;54.926;73.496;2022-10-16T06:23:48;13.02;;;10.13;;
59907;SDS011;61804;54.926;73.496;2022-10-16T06:26:18;11.48;;;8.93;;
59907;SDS011;61804;54.926;73.496;2022-10-16T06:28:51;27.85;;;12.85;;
59907;SDS011;61804;54.926;73.496;2022-10-16T06:31:22;6.18;;;5.53;;
59907;SDS011;61804;54.926;73.496;2022-10-16T06:33:54;8.93;;;6.90;;
59907;SDS011;61804;54.926;73.496;2022-10-16T06:36:31;5.97;;;5.47;;
59907;SDS011;61804;54.926;73.496;2022-10-16T06:38:59;11.13;;;6.28;;
59907;SDS011;61804;54.926;73.496;2022-10-16T06:41:26;10.05;;;4.03;;
59907;SDS011;61804;54.926;73.496;2022-10-16T06:43:53;9.80;;;5.50;;
59907;SDS011;61804;54.926;73.496;2022-10-16T06:46:21;19.58;;;3.83;;
59907;SDS011;61804;54.926;73.496;2022-10-16T06:48:49;15.80;;;8.68;;
59907;SDS011;61804;54.926;73.496;2022-10-16T06:51:17;28.13;;;9.25;;
59907;SDS011;61804;54.926;73.496;2022-10-16T06:53:47;11.40;;;5.18;;
59907;SDS011;61804;54.926;73.496;2022-10-16T06:56:20;7.55;;;4.38;;
59907;SDS011;61804;54.926;73.496;2022-10-16T06:58:49;8.95;;;5.97;;
59907;SDS011;61804;54.926;73.496;2022-10-16T07:01:19;6.38;;;4.55;;
59907;SDS011;61804;54.926;73.496;2022-10-16T07:03:47;9.25;;;4.57;;
59907;SDS011;61804;54.926;73.496;2022-10-16T07:06:16;9.13;;;5.15;;
59907;SDS011;61804;54.926;73.496;2022-10-16T07:08:55;12.80;;;6.03;;
59907;SDS011;61804;54.926;73.496;2022-10-16T07:11:22;7.07;;;6.00;;
59907;SDS011;61804;54.926;73.496;2022-10-16T07:13:50;14.43;;;5.82;;
59907;SDS011;61804;54.926;73.496;2022-10-16T07:16:20;8.35;;;5.18;;
59907;SDS011;61804;54.926;73.496;2022-10-16T07:18:48;22.13;;;8.20;;
59907;SDS011;61804;54.926;73.496;2022-10-16T07:21:18;13.57;;;6.20;;
59907;SDS011;61804;54.926;73.496;2022-10-16T07:23:53;21.83;;;10.18;;
59907;SDS011;61804;54.926;73.496;2022-10-16T07:26:21;9.68;;;7.07;;
59907;SDS011;61804;54.926;73.496;2022-10-16T07:28:49;46.92;;;10.80;;
59907;SDS011;61804;54.926;73.496;2022-10-16T07:31:19;25.58;;;10.70;;
59907;SDS011;61804;54.926;73.496;2022-10-16T07:33:47;52.97;;;17.08;;
59907;SDS011;61804;54.926;73.496;2022-10-16T07:36:26;14.80;;;8.60;;
59907;SDS011;61804;54.926;73.496;2022-10-16T07:38:56;33.30;;;11.80;;
59907;SDS011;61804;54.926;73.496;2022-10-16T07:41:24;18.38;;;8.50;;
59907;SDS011;61804;54.926;73.496;2022-10-16T07:43:52;18.48;;;9.57;;
59907;SDS011;61804;54.926;73.496;2022-10-16T07:46:21;33.13;;;11.40;;
59907;SDS011;61804;54.926;73.496;2022-10-16T07:48:49;32.88;;;13.93;;
59907;SDS011;61804;54.926;73.496;2022-10-16T07:51:20;48.70;;;14.85;;
59907;SDS011;61804;54.926;73.496;2022-10-16T07:53:48;32.40;;;11.73;;
59907;SDS011;61804;54.926;73.496;2022-10-16T07:56:16;36.72;;;11.52;;
59907;SDS011;61804;54.926;73.496;2022-10-16T07:58:44;46.05;;;15.38;;
59907;SDS011;61804;54.926;73.496;2022-10-16T08:01:13;42.58;;;11.32;;
59907;SDS011;61804;54.926;73.496;2022-10-16T08:03:44;16.50;;;9.50;;
59907;SDS011;61804;54.926;73.496;2022-10-16T08:06:12;19.83;;;12.75;;
59907;SDS011;61804;54.926;73.496;2022-10-16T08:08:40;14.45;;;7.88;;
59907;SDS011;61804;54.926;73.496;2022-10-16T08:11:09;14.18;;;8.27;;
59907;SDS011;61804;54.926;73.496;2022-10-16T08:13:37;23.40;;;10.18;;
59907;SDS011;61804;54.926;73.496;2022-10-16T08:16:05;16.33;;;8.27;;
59907;SDS011;61804;54.926;73.496;2022-10-16T08:18:35;13.23;;;7.88;;
59907;SDS011;61804;54.926;73.496;2022-10-16T08:21:03;10.00;;;6.60;;
59907;SDS011;61804;54.926;73.496;2022-10-16T08:23:31;10.18;;;7.53;;
59907;SDS011;61804;54.926;73.496;2022-10-16T08:26:10;30.83;;;11.35;;
59907;SDS011;61804;54.926;73.496;2022-10-16T08:28:38;20.42;;;7.78;;
59907;SDS011;61804;54.926;73.496;2022-10-16T08:31:09;15.02;;;9.32;;
59907;SDS011;61804;54.926;73.496;2022-10-16T08:33:38;9.23;;;8.43;;
59907;SDS011;61804;54.926;73.496;2022-10-16T08:36:06;23.92;;;9.30;;
59907;SDS011;61804;54.926;73.496;2022-10-16T08:38:35;16.95;;;9.07;;
59907;SDS011;61804;54.926;73.496;2022-10-16T08:41:17;16.75;;;9.60;;
59907;SDS011;61804;54.926;73.496;2022-10-16T08:48:56;18.52;;;7.72;;
59907;SDS011;61804;54.926;73.496;2022-10-16T08:51:25;19.90;;;9.90;;
59907;SDS011;61804;54.926;73.496;2022-10-16T08:53:54;30.80;;;10.93;;
59907;SDS011;61804;54.926;73.496;2022-10-16T08:56:23;18.77;;;11.13;;
59907;SDS011;61804;54.926;73.496;2022-10-16T08:58:51;40.47;;;16.60;;
59907;SDS011;61804;54.926;73.496;2022-10-16T09:01:21;43.65;;;18.75;;
59907;SDS011;61804;54.926;73.496;2022-10-16T09:06:23;26.70;;;16.90;;
59907;SDS011;61804;54.926;73.496;2022-10-16T09:09:06;55.22;;;21.33;;
59907;SDS011;61804;54.926;73.496;2022-10-16T09:11:53;47.65;;;21.70;;
59907;SDS011;61804;54.926;73.496;2022-10-16T09:17:27;30.75;;;16.40;;
59907;SDS011;61804;54.926;73.496;2022-10-16T09:20:03;27.48;;;13.82;;
59907;SDS011;61804;54.926;73.496;2022-10-16T09:22:34;25.67;;;13.38;;
59907;SDS011;61804;54.926;73.496;2022-10-16T09:25:13;20.73;;;13.15;;
59907;SDS011;61804;54.926;73.496;2022-10-16T09:27:47;19.00;;;13.30;;
59907;SDS011;61804;54.926;73.496;2022-10-16T09:30:18;25.55;;;13.60;;
59907;SDS011;61804;54.926;73.496;2022-10-16T09:32:47;22.17;;;10.85;;
59907;SDS011;61804;54.926;73.496;2022-10-16T09:35:19;26.88;;;11.68;;
59907;SDS011;61804;54.926;73.496;2022-10-16T09:37:49;33.75;;;13.70;;
59907;SDS011;61804;54.926;73.496;2022-10-16T09:40:28;22.80;;;11.38;;
59907;SDS011;61804;54.926;73.496;2022-10-16T09:43:20;36.08;;;16.27;;
59907;SDS011;61804;54.926;73.496;2022-10-16T09:45:53;40.58;;;16.63;;
59907;SDS011;61804;54.926;73.496;2022-10-16T09:48:22;30.55;;;13.23;;
59907;SDS011;61804;54.926;73.496;2022-10-16T09:50:59;26.33;;;13.55;;
59907;SDS011;61804;54.926;73.496;2022-10-16T09:53:40;38.08;;;12.82;;
59907;SDS011;61804;54.926;73.496;2022-10-16T09:56:23;31.42;;;14.75;;
59907;SDS011;61804;54.926;73.496;2022-10-16T09:58:52;18.80;;;13.02;;
59907;SDS011;61804;54.926;73.496;2022-10-16T10:01:20;22.17;;;13.43;;
59907;SDS011;61804;54.926;73.496;2022-10-16T10:03:48;33.53;;;13.65;;
59907;SDS011;61804;54.926;73.496;2022-10-16T10:06:24;20.75;;;13.13;;
59907;SDS011;61804;54.926;73.496;2022-10-16T10:09:02;17.30;;;10.85;;
59907;SDS011;61804;54.926;73.496;2022-10-16T10:14:37;29.10;;;17.83;;
59907;SDS011;61804;54.926;73.496;2022-10-16T10:19:46;28.25;;;11.77;;
59907;SDS011;61804;54.926;73.496;2022-10-16T10:27:48;64.80;;;18.13;;
59907;SDS011;61804;54.926;73.496;2022-10-16T10:30:29;28.70;;;10.65;;
59907;SDS011;61804;54.926;73.496;2022-10-16T10:38:18;27.67;;;12.13;;
59907;SDS011;61804;54.926;73.496;2022-10-16T10:45:51;32.47;;;16.17;;
59907;SDS011;61804;54.926;73.496;2022-10-16T10:48:30;13.38;;;9.65;;
59907;SDS011;61804;54.926;73.496;2022-10-16T10:51:03;17.52;;;9.15;;
59907;SDS011;61804;54.926;73.496;2022-10-16T10:53:44;15.07;;;9.25;;
59907;SDS011;61804;54.926;73.496;2022-10-16T11:01:18;26.30;;;15.48;;
59907;SDS011;61804;54.926;73.496;2022-10-16T11:06:22;24.35;;;13.90;;
59907;SDS011;61804;54.926;73.496;2022-10-16T11:08:56;38.78;;;18.63;;
59907;SDS011;61804;54.926;73.496;2022-10-16T11:11:38;21.15;;;14.80;;
59907;SDS011;61804;54.926;73.496;2022-10-16T11:16:54;32.40;;;14.73;;
59907;SDS011;61804;54.926;73.496;2022-10-16T11:24:42;27.58;;;13.82;;
59907;SDS011;61804;54.926;73.496;2022-10-16T11:27:19;31.73;;;17.35;;
59907;SDS011;61804;54.926;73.496;2022-10-16T11:30:30;27.95;;;16.05;;
59907;SDS011;61804;54.926;73.496;2022-10-16T11:32:49;69.18;;;32.67;;
59907;SDS011;61804;54.926;73.496;2022-10-16T11:35:22;36.10;;;21.45;;
59907;SDS011;61804;54.926;73.496;2022-10-16T11:37:52;35.28;;;16.67;;
59907;SDS011;61804;54.926;73.496;2022-10-16T11:43:02;57.85;;;19.35;;
59907;SDS011;61804;54.926;73.496;2022-10-16T11:45:45;31.20;;;15.88;;
59907;SDS011;61804;54.926;73.496;2022-10-16T11:50:57;52.58;;;14.75;;
59907;SDS011;61804;54.926;73.496;2022-10-16T11:56:03;12.00;;;8.25;;
59907;SDS011;61804;54.926;73.496;2022-10-16T12:01:26;11.18;;;7.97;;
59907;SDS011;61804;54.926;73.496;2022-10-16T12:04:02;17.83;;;9.02;;
59907;SDS011;61804;54.926;73.496;2022-10-16T12:06:34;16.27;;;12.57;;
59907;SDS011;61804;54.926;73.496;2022-10-16T12:09:16;40.10;;;16.15;;
59907;SDS011;61804;54.926;73.496;2022-10-16T12:11:47;39.78;;;16.50;;
59907;SDS011;61804;54.926;73.496;2022-10-16T12:19:23;44.08;;;22.10;;
59907;SDS011;61804;54.926;73.496;2022-10-16T12:21:52;50.60;;;27.52;;
59907;SDS011;61804;54.926;73.496;2022-10-16T12:26:49;55.60;;;29.08;;
59907;SDS011;61804;54.926;73.496;2022-10-16T12:29:34;42.78;;;23.85;;
59907;SDS011;61804;54.926;73.496;2022-10-16T12:32:04;56.85;;;27.60;;
59907;SDS011;61804;54.926;73.496;2022-10-16T12:34:53;51.88;;;24.00;;
59907;SDS011;61804;54.926;73.496;2022-10-16T12:37:38;31.83;;;21.75;;
59907;SDS011;61804;54.926;73.496;2022-10-16T12:40:14;46.00;;;21.67;;
59907;SDS011;61804;54.926;73.496;2022-10-16T12:42:42;24.20;;;16.70;;
59907;SDS011;61804;54.926;73.496;2022-10-16T12:45:33;29.33;;;15.75;;
59907;SDS011;61804;54.926;73.496;2022-10-16T12:48:02;23.20;;;14.93;;
59907;SDS011;61804;54.926;73.496;2022-10-16T12:50:36;21.63;;;13.20;;
59907;SDS011;61804;54.926;73.496;2022-10-16T12:53:17;23.38;;;15.00;;
59907;SDS011;61804;54.926;73.496;2022-10-16T12:56:08;19.10;;;13.63;;
59907;SDS011;61804;54.926;73.496;2022-10-16T13:01:11;118.15;;;93.90;;
59907;SDS011;61804;54.926;73.496;2022-10-16T13:06:22;106.13;;;80.82;;
59907;SDS011;61804;54.926;73.496;2022-10-16T13:09:02;81.25;;;60.38;;
59907;SDS011;61804;54.926;73.496;2022-10-16T13:12:00;80.05;;;61.03;;
59907;SDS011;61804;54.926;73.496;2022-10-16T13:14:54;95.05;;;76.85;;
59907;SDS011;61804;54.926;73.496;2022-10-16T13:25:22;54.78;;;35.53;;
59907;SDS011;61804;54.926;73.496;2022-10-16T13:30:26;49.67;;;39.55;;
59907;SDS011;61804;54.926;73.496;2022-10-16T13:33:04;52.83;;;40.20;;
59907;SDS011;61804;54.926;73.496;2022-10-16T13:35:34;55.53;;;38.88;;
59907;SDS011;61804;54.926;73.496;2022-10-16T13:38:04;61.60;;;48.45;;
59907;SDS011;61804;54.926;73.496;2022-10-16T13:40:33;57.50;;;40.10;;
59907;SDS011;61804;54.926;73.496;2022-10-16T13:43:01;46.50;;;33.30;;
59907;SDS011;61804;54.926;73.496;2022-10-16T13:45:29;35.80;;;29.50;;
59907;SDS011;61804;54.926;73.496;2022-10-16T13:48:09;44.58;;;32.20;;
59907;SDS011;61804;54.926;73.496;2022-10-16T13:50:39;31.10;;;21.70;;
59907;SDS011;61804;54.926;73.496;2022-10-16T13:53:07;26.90;;;20.85;;
59907;SDS011;61804;54.926;73.496;2022-10-16T13:55:34;40.88;;;23.95;;
59907;SDS011;61804;54.926;73.496;2022-10-16T13:58:05;57.80;;;48.00;;
59907;SDS011;61804;54.926;73.496;2022-10-16T14:00:33;58.85;;;43.33;;
59907;SDS011;61804;54.926;73.496;2022-10-16T14:03:15;47.20;;;34.95;;
59907;SDS011;61804;54.926;73.496;2022-10-16T14:05:54;49.53;;;35.47;;
59907;SDS011;61804;54.926;73.496;2022-10-16T14:08:23;48.17;;;35.10;;
59907;SDS011;61804;54.926;73.496;2022-10-16T14:10:52;37.15;;;32.83;;
59907;SDS011;61804;54.926;73.496;2022-10-16T14:15:53;72.10;;;54.50;;
59907;SDS011;61804;54.926;73.496;2022-10-16T14:18:26;31.80;;;28.38;;
59907;SDS011;61804;54.926;73.496;2022-10-16T14:21:11;30.98;;;25.48;;
59907;SDS011;61804;54.926;73.496;2022-10-16T14:23:40;20.75;;;18.60;;
59907;SDS011;61804;54.926;73.496;2022-10-16T14:28:39;22.98;;;20.92;;
59907;SDS011;61804;54.926;73.496;2022-10-16T14:33:51;26.27;;;23.23;;
59907;SDS011;61804;54.926;73.496;2022-10-16T14:36:19;23.05;;;17.60;;
59907;SDS011;61804;54.926;73.496;2022-10-16T14:39:00;23.48;;;18.63;;
59907;SDS011;61804;54.926;73.496;2022-10-16T14:41:30;39.20;;;35.03;;
59907;SDS011;61804;54.926;73.496;2022-10-16T14:44:02;22.30;;;16.13;;
59907;SDS011;61804;54.926;73.496;2022-10-16T14:46:34;23.58;;;21.10;;
59907;SDS011;61804;54.926;73.496;2022-10-16T14:49:03;19.40;;;17.35;;
59907;SDS011;61804;54.926;73.496;2022-10-16T14:51:32;32.80;;;27.27;;
59907;SDS011;61804;54.926;73.496;2022-10-16T14:54:04;38.67;;;34.65;;
59907;SDS011;61804;54.926;73.496;2022-10-16T14:56:42;35.95;;;27.08;;
59907;SDS011;61804;54.926;73.496;2022-10-16T14:59:19;32.83;;;23.52;;
59907;SDS011;61804;54.926;73.496;2022-10-16T15:01:49;29.90;;;26.15;;
59907;SDS011;61804;54.926;73.496;2022-10-16T15:04:16;29.27;;;26.10;;
59907;SDS011;61804;54.926;73.496;2022-10-16T15:06:45;27.90;;;24.98;;
59907;SDS011;61804;54.926;73.496;2022-10-16T15:09:24;25.75;;;22.23;;
59907;SDS011;61804;54.926;73.496;2022-10-16T15:11:55;25.75;;;21.98;;
59907;SDS011;61804;54.926;73.496;2022-10-16T15:14:23;31.23;;;27.88;;
59907;SDS011;61804;54.926;73.496;2022-10-16T15:16:50;28.45;;;24.73;;
59907;SDS011;61804;54.926;73.496;2022-10-16T15:19:18;29.02;;;26.10;;
59907;SDS011;61804;54.926;73.496;2022-10-16T15:21:46;31.42;;;25.80;;
59907;SDS011;61804;54.926;73.496;2022-10-16T15:24:15;29.02;;;25.52;;
59907;SDS011;61804;54.926;73.496;2022-10-16T15:26:43;41.75;;;37.60;;
59907;SDS011;61804;54.926;73.496;2022-10-16T15:29:23;48.08;;;37.03;;
59907;SDS011;61804;54.926;73.496;2022-10-16T15:31:51;56.55;;;41.83;;
59907;SDS011;61804;54.926;73.496;2022-10-16T15:34:19;57.25;;;46.47;;
59907;SDS011;61804;54.926;73.496;2022-10-16T15:36:51;63.72;;;47.50;;
59907;SDS011;61804;54.926;73.496;2022-10-16T15:39:19;67.72;;;51.40;;
59907;SDS011;61804;54.926;73.496;2022-10-16T15:41:47;56.17;;;44.75;;
59907;SDS011;61804;54.926;73.496;2022-10-16T15:44:21;47.53;;;41.17;;
59907;SDS011;61804;54.926;73.496;2022-10-16T15:46:56;63.00;;;50.25;;
59907;SDS011;61804;54.926;73.496;2022-10-16T15:49:25;39.60;;;35.10;;
59907;SDS011;61804;54.926;73.496;2022-10-16T15:51:53;39.00;;;30.38;;
59907;SDS011;61804;54.926;73.496;2022-10-16T15:54:22;33.67;;;27.27;;
59907;SDS011;61804;54.926;73.496;2022-10-16T15:57:00;26.75;;;23.95;;
59907;SDS011;61804;54.926;73.496;2022-10-16T15:59:28;33.97;;;25.83;;
59907;SDS011;61804;54.926;73.496;2022-10-16T16:01:57;28.58;;;25.63;;
59907;SDS011;61804;54.926;73.496;2022-10-16T16:04:25;31.90;;;28.60;;
59907;SDS011;61804;54.926;73.496;2022-10-16T16:06:53;34.28;;;30.02;;
59907;SDS011;61804;54.926;73.496;2022-10-16T16:09:21;32.33;;;29.05;;
59907;SDS011;61804;54.926;73.496;2022-10-16T16:11:49;32.42;;;28.95;;
59907;SDS011;61804;54.926;73.496;2022-10-16T16:14:23;28.05;;;24.92;;
59907;SDS011;61804;54.926;73.496;2022-10-16T16:16:53;28.10;;;25.13;;
59907;SDS011;61804;54.926;73.496;2022-10-16T16:19:20;25.90;;;23.20;;
59907;SDS011;61804;54.926;73.496;2022-10-16T16:21:50;26.85;;;23.55;;
59907;SDS011;61804;54.926;73.496;2022-10-16T16:24:22;22.42;;;19.45;;
59907;SDS011;61804;54.926;73.496;2022-10-16T16:26:50;22.92;;;20.50;;
59907;SDS011;61804;54.926;73.496;2022-10-16T16:29:17;20.63;;;18.10;;